Home > Products > Valid Products > TAF

000
FTUS43 KJKL 300429 AAB
TAFSME
TAF AMD
KSME 300429Z 3004/3024 24010KT P6SM OVC060 WS020/25050KT
     FM300700 VRB04KT 4SM -SHRA BR SCT030 OVC050
     FM300900 VRB04KT P6SM BKN050
     FM301300 28008KT P6SM FEW060 SCT200=



000
FTUS43 KJKL 300428 AAB
TAFLOZ
TAF AMD
KLOZ 300428Z 3004/3024 22010G20KT P6SM OVC060 WS020/24050KT
     FM300800 VRB04KT 4SM -SHRA BR SCT030 OVC050
     FM301000 VRB04KT P6SM BKN050
     FM301300 30010KT P6SM FEW060 SCT200=



000
FTUS43 KJKL 300426 AAB
TAFJKL
TAF AMD
KJKL 300426Z 3004/3024 19005KT P6SM OVC060 WS015/22045KT
     FM300700 VRB04KT 4SM -SHRA BR SCT030 OVC050
     FM300900 VRB04KT P6SM BKN050
     FM301300 28008KT P6SM FEW060 SCT200=



000
FTUS43 KJKL 300308 AAA
TAFSME
TAF AMD
KSME 300308Z 3003/3024 22006KT P6SM OVC060
     FM300700 VRB04KT 4SM -SHRA BR SCT030 OVC050
     FM300900 VRB04KT P6SM BKN050
     FM301300 28008KT P6SM FEW060 SCT200=



000
FTUS43 KJKL 300307 AAA
TAFLOZ
TAF AMD
KLOZ 300307Z 3003/3024 22005KT P6SM OVC060
     FM300800 VRB04KT 4SM -SHRA BR SCT030 OVC050
     FM301000 VRB04KT P6SM BKN050
     FM301300 30010KT P6SM FEW060 SCT200=



000
FTUS43 KJKL 300307 AAA
TAFLOZ
TAF AMD
KLOZ 300307Z 3003/3024 22005KT P6SM OVC060
     FM300800 VRB04KT 4SM -SHRA BR SCT030 OVC050
     FM301000 VRB04KT P6SM BKN050
     FM301300 30010KT P6SM FEW060 SCT200=



000
FTUS43 KJKL 300306 AAA
TAFJKL
TAF AMD
KJKL 300306Z 3003/3024 19005KT P6SM OVC060
     FM300700 VRB04KT 4SM -SHRA BR SCT030 OVC050
     FM300900 VRB04KT P6SM BKN050
     FM301300 28008KT P6SM FEW060 SCT200=



000
FTUS43 KJKL 300306 AAA
TAFJKL
TAF AMD
KJKL 300306Z 3003/3024 19005KT P6SM OVC060
     FM300700 VRB04KT 4SM -SHRA BR SCT030 OVC050
     FM300900 VRB04KT P6SM BKN050
     FM301300 28008KT P6SM FEW060 SCT200=



000
FTUS43 KJKL 292357
TAFSME
TAF
KSME 292357Z 3000/3024 20010KT P6SM BKN120
     FM300300 VRB03KT P6SM OVC060
     FM300700 25006KT 4SM -SHRA BR OVC025
     FM301100 28005KT P6SM BKN030
     FM301600 28005KT P6SM SKC=



000
FTUS43 KJKL 292357
TAFJKL
TAF
KJKL 292357Z 3000/3024 18006KT P6SM BKN120
     FM300300 VRB03KT P6SM OVC060
     FM300700 25006KT 4SM -SHRA BR OVC025
     FM301100 28005KT P6SM BKN030
     FM301600 28005KT P6SM SKC=



000
FTUS43 KJKL 292357
TAFLOZ
TAF
KLOZ 292357Z 3000/3024 20010KT P6SM BKN120
     FM300300 VRB03KT P6SM OVC060
     FM300700 25006KT 4SM -SHRA BR OVC025
     FM301100 28005KT P6SM BKN030
     FM301600 28005KT P6SM SKC=



000
FTUS43 KJKL 292357
TAFSME
TAF
KSME 292357Z 3000/3024 20010KT P6SM BKN120
     FM300300 VRB03KT P6SM OVC060
     FM300700 25006KT 4SM -SHRA BR OVC025
     FM301100 28005KT P6SM BKN030
     FM301600 28005KT P6SM SKC=



000
FTUS43 KJKL 292357
TAFLOZ
TAF
KLOZ 292357Z 3000/3024 20010KT P6SM BKN120
     FM300300 VRB03KT P6SM OVC060
     FM300700 25006KT 4SM -SHRA BR OVC025
     FM301100 28005KT P6SM BKN030
     FM301600 28005KT P6SM SKC=



000
FTUS43 KJKL 292357
TAFJKL
TAF
KJKL 292357Z 3000/3024 18006KT P6SM BKN120
     FM300300 VRB03KT P6SM OVC060
     FM300700 25006KT 4SM -SHRA BR OVC025
     FM301100 28005KT P6SM BKN030
     FM301600 28005KT P6SM SKC=



000
FTUS43 KJKL 291739
TAFJKL
TAF
KJKL 291739Z 2918/3018 18006KT P6SM SCT250
     FM300200 20008G15KT P6SM VCSH BKN030 OVC060
     FM300400 22008KT 5SM -SHRA BKN025 OVC035
     FM300600 25006KT 4SM -SHRA BR OVC015
     FM301300 28005KT P6SM VCSH BKN015
     FM301600 28005KT P6SM SCT040=



000
FTUS43 KJKL 291739
TAFSME
TAF
KSME 291739Z 2918/3018 18008KT P6SM SCT250
     FM300200 21009G15KT P6SM VCSH BKN030 OVC060
     FM300400 23009KT 5SM -SHRA BKN025 OVC035
     FM300600 25006KT 4SM -SHRA BR OVC015
     FM301200 33004KT P6SM VCSH BKN015
     FM301600 32006KT P6SM SCT015=



000
FTUS43 KJKL 291739
TAFLOZ
TAF
KLOZ 291739Z 2918/3018 18006KT P6SM SCT250
     FM300200 20009G15KT P6SM VCSH BKN030 OVC060
     FM300400 22009KT 5SM -SHRA BKN025 OVC035
     FM300600 25006KT 4SM -SHRA BR OVC015
     FM301200 31006KT P6SM VCSH BKN015
     FM301600 30008KT P6SM SCT015=



000
FTUS43 KJKL 291739
TAFJKL
TAF
KJKL 291739Z 2918/3018 18006KT P6SM SCT250
     FM300200 20008G15KT P6SM VCSH BKN030 OVC060
     FM300400 22008KT 5SM -SHRA BKN025 OVC035
     FM300600 25006KT 4SM -SHRA BR OVC015
     FM301300 28005KT P6SM VCSH BKN015
     FM301600 28005KT P6SM SCT040=



000
FTUS43 KJKL 291739
TAFLOZ
TAF
KLOZ 291739Z 2918/3018 18006KT P6SM SCT250
     FM300200 20009G15KT P6SM VCSH BKN030 OVC060
     FM300400 22009KT 5SM -SHRA BKN025 OVC035
     FM300600 25006KT 4SM -SHRA BR OVC015
     FM301200 31006KT P6SM VCSH BKN015
     FM301600 30008KT P6SM SCT015=



000
FTUS43 KJKL 291739
TAFSME
TAF
KSME 291739Z 2918/3018 18008KT P6SM SCT250
     FM300200 21009G15KT P6SM VCSH BKN030 OVC060
     FM300400 23009KT 5SM -SHRA BKN025 OVC035
     FM300600 25006KT 4SM -SHRA BR OVC015
     FM301200 33004KT P6SM VCSH BKN015
     FM301600 32006KT P6SM SCT015=



000
FTUS43 KJKL 291513 AAA
TAFSME
TAF AMD
KSME 291513Z 2915/3012 18008KT P6SM SCT250
     FM300200 21009G15KT P6SM VCSH BKN040 OVC060
     FM300500 23009KT 5SM -SHRA SCT025 OVC035
     FM300700 25006KT 4SM -SHRA BR OVC015=



000
FTUS43 KJKL 291513 AAA
TAFSME
TAF AMD
KSME 291513Z 2915/3012 18008KT P6SM SCT250
     FM300200 21009G15KT P6SM VCSH BKN040 OVC060
     FM300500 23009KT 5SM -SHRA SCT025 OVC035
     FM300700 25006KT 4SM -SHRA BR OVC015=



000
FTUS43 KJKL 291120
TAFSME
TAF
KSME 291120Z 2912/3012 00000KT P6SM SKC
     FM291400 18008G15KT P6SM SCT250
     FM300200 21009G15KT P6SM VCSH BKN040 OVC060
     FM300500 23009KT 5SM -SHRA SCT025 OVC035
     FM300700 25006KT 4SM -SHRA BR OVC015=



000
FTUS43 KJKL 291120
TAFJKL
TAF
KJKL 291120Z 2912/3012 VRB03KT P6SM SKC
     FM291400 18006KT P6SM SCT250
     FM300200 20008G15KT P6SM VCSH BKN040 OVC060
     FM300400 22008KT 5SM -SHRA SCT025 OVC035
     FM300600 25006KT 4SM -SHRA BR OVC015=



000
FTUS43 KJKL 291120
TAFLOZ
TAF
KLOZ 291120Z 2912/3012 00000KT P6SM SKC
     FM291400 18008KT P6SM SCT250
     FM300200 20009G15KT P6SM VCSH BKN040 OVC060
     FM300500 22009KT 5SM -SHRA SCT025 OVC035
     FM300700 25006KT 4SM -SHRA BR OVC015=



000
FTUS43 KJKL 291120
TAFSME
TAF
KSME 291120Z 2912/3012 00000KT P6SM SKC
     FM291400 18008G15KT P6SM SCT250
     FM300200 21009G15KT P6SM VCSH BKN040 OVC060
     FM300500 23009KT 5SM -SHRA SCT025 OVC035
     FM300700 25006KT 4SM -SHRA BR OVC015=



000
FTUS43 KJKL 291120
TAFJKL
TAF
KJKL 291120Z 2912/3012 VRB03KT P6SM SKC
     FM291400 18006KT P6SM SCT250
     FM300200 20008G15KT P6SM VCSH BKN040 OVC060
     FM300400 22008KT 5SM -SHRA SCT025 OVC035
     FM300600 25006KT 4SM -SHRA BR OVC015=



000
FTUS43 KJKL 291120
TAFLOZ
TAF
KLOZ 291120Z 2912/3012 00000KT P6SM SKC
     FM291400 18008KT P6SM SCT250
     FM300200 20009G15KT P6SM VCSH BKN040 OVC060
     FM300500 22009KT 5SM -SHRA SCT025 OVC035
     FM300700 25006KT 4SM -SHRA BR OVC015=



000
FTUS43 KJKL 290535
TAFSME
TAF
KSME 290535Z 2906/3006 00000KT P6SM SKC
     FM291400 18008G15KT P6SM SCT250
     FM300200 21009G15KT P6SM VCSH BKN040 OVC060
     FM300500 23009KT 5SM -SHRA SCT025 OVC035=



000
FTUS43 KJKL 290535
TAFLOZ
TAF
KLOZ 290535Z 2906/3006 00000KT P6SM SKC
     FM291400 18008KT P6SM SCT250
     FM300200 20009G15KT P6SM VCSH BKN040 OVC060
     FM300500 22009KT 5SM -SHRA SCT025 OVC035=



000
FTUS43 KJKL 290535
TAFJKL
TAF
KJKL 290535Z 2906/3006 VRB03KT P6SM SKC
     FM291400 18006KT P6SM SCT250
     FM300200 20008G15KT P6SM VCSH BKN040 OVC060
     FM300400 22008KT 5SM -SHRA SCT025 OVC035=



000
FTUS43 KJKL 290535
TAFJKL
TAF
KJKL 290535Z 2906/3006 VRB03KT P6SM SKC
     FM291400 18006KT P6SM SCT250
     FM300200 20008G15KT P6SM VCSH BKN040 OVC060
     FM300400 22008KT 5SM -SHRA SCT025 OVC035=



000
FTUS43 KJKL 290535
TAFLOZ
TAF
KLOZ 290535Z 2906/3006 00000KT P6SM SKC
     FM291400 18008KT P6SM SCT250
     FM300200 20009G15KT P6SM VCSH BKN040 OVC060
     FM300500 22009KT 5SM -SHRA SCT025 OVC035=



000
FTUS43 KJKL 290535
TAFSME
TAF
KSME 290535Z 2906/3006 00000KT P6SM SKC
     FM291400 18008G15KT P6SM SCT250
     FM300200 21009G15KT P6SM VCSH BKN040 OVC060
     FM300500 23009KT 5SM -SHRA SCT025 OVC035=



000
FTUS43 KJKL 282335
TAFLOZ
TAF
KLOZ 282335Z 2900/2924 36007KT P6SM SKC
     FM290100 VRB04KT P6SM SKC
     FM291400 18007KT P6SM SCT250=



000
FTUS43 KJKL 282335
TAFJKL
TAF
KJKL 282335Z 2900/2924 VRB03KT P6SM SKC
     FM291400 18007KT P6SM SCT250=



000
FTUS43 KJKL 282335
TAFSME
TAF
KSME 282335Z 2900/2924 02007KT P6SM SKC
     FM290100 VRB04KT P6SM SKC
     FM291400 18008G15KT P6SM SCT250=



000
FTUS43 KJKL 282335
TAFJKL
TAF
KJKL 282335Z 2900/2924 VRB03KT P6SM SKC
     FM291400 18007KT P6SM SCT250=



000
FTUS43 KJKL 282335
TAFLOZ
TAF
KLOZ 282335Z 2900/2924 36007KT P6SM SKC
     FM290100 VRB04KT P6SM SKC
     FM291400 18007KT P6SM SCT250=



000
FTUS43 KJKL 282335
TAFSME
TAF
KSME 282335Z 2900/2924 02007KT P6SM SKC
     FM290100 VRB04KT P6SM SKC
     FM291400 18008G15KT P6SM SCT250=



000
FTUS43 KJKL 281725
TAFJKL
TAF
KJKL 281725Z 2818/2918 33006KT P6SM FEW040
     FM290000 VRB03KT P6SM SKC=



000
FTUS43 KJKL 281725
TAFLOZ
TAF
KLOZ 281725Z 2818/2918 36007KT P6SM FEW040
     FM290000 VRB03KT P6SM SKC=



000
FTUS43 KJKL 281725
TAFSME
TAF
KSME 281725Z 2818/2918 36007KT P6SM FEW040
     FM290000 VRB03KT P6SM SKC=



000
FTUS43 KJKL 281725
TAFSME
TAF
KSME 281725Z 2818/2918 36007KT P6SM FEW040
     FM290000 VRB03KT P6SM SKC=



000
FTUS43 KJKL 281725
TAFJKL
TAF
KJKL 281725Z 2818/2918 33006KT P6SM FEW040
     FM290000 VRB03KT P6SM SKC=



000
FTUS43 KJKL 281725
TAFLOZ
TAF
KLOZ 281725Z 2818/2918 36007KT P6SM FEW040
     FM290000 VRB03KT P6SM SKC=



000
FTUS43 KJKL 281148 CCA
TAFJKL
TAF COR
KJKL 281148Z 2812/2912 33008KT 5SM -SN SCT025 BKN050
     FM281230 34006KT P6SM SKC
     FM290000 VRB03KT P6SM SKC=



000
FTUS43 KJKL 281148 CCA
TAFJKL
TAF COR
KJKL 281148Z 2812/2912 33008KT 5SM -SN SCT025 BKN050
     FM281230 34006KT P6SM SKC
     FM290000 VRB03KT P6SM SKC=



000
FTUS43 KJKL 281135
TAFSME
TAF
KSME 281135Z 2812/2912 35005KT P6SM BKN040
     FM281400 34007KT P6SM SKC
     FM290000 VRB03KT P6SM SKC=



000
FTUS43 KJKL 281135
TAFJKL
TAF
KJKL 281135Z 2812/2912 33008KT 6SM -SN SCT035 BKN050
     FM281230 34006KT P6SM SKC
     FM290000 VRB03KT P6SM SKC=



000
FTUS43 KJKL 281135
TAFLOZ
TAF
KLOZ 281135Z 2812/2912 34004KT P6SM BKN040
     FM281400 34007KT P6SM SKC
     FM290000 VRB03KT P6SM SKC=



000
FTUS43 KJKL 281135
TAFJKL
TAF
KJKL 281135Z 2812/2912 33008KT 6SM -SN SCT035 BKN050
     FM281230 34006KT P6SM SKC
     FM290000 VRB03KT P6SM SKC=



000
FTUS43 KJKL 281135
TAFLOZ
TAF
KLOZ 281135Z 2812/2912 34004KT P6SM BKN040
     FM281400 34007KT P6SM SKC
     FM290000 VRB03KT P6SM SKC=



000
FTUS43 KJKL 281135
TAFSME
TAF
KSME 281135Z 2812/2912 35005KT P6SM BKN040
     FM281400 34007KT P6SM SKC
     FM290000 VRB03KT P6SM SKC=



000
FTUS43 KJKL 280524
TAFSME
TAF
KSME 280524Z 2806/2906 34008KT P6SM VCSH SCT035 BKN050
     FM280900 33004KT P6SM BKN050
     FM281200 VRB03KT P6SM SKC=



000
FTUS43 KJKL 280524
TAFJKL
TAF
KJKL 280524Z 2806/2906 33008KT P6SM VCSH SCT035 BKN050
     FM281000 33004KT P6SM BKN050
     FM281200 VRB03KT P6SM SKC=



000
FTUS43 KJKL 280524
TAFLOZ
TAF
KLOZ 280524Z 2806/2906 34010KT P6SM VCSH SCT035 OVC050
     FM280900 33004KT P6SM BKN050
     FM281200 VRB03KT P6SM SKC=



000
FTUS43 KJKL 280524
TAFJKL
TAF
KJKL 280524Z 2806/2906 33008KT P6SM VCSH SCT035 BKN050
     FM281000 33004KT P6SM BKN050
     FM281200 VRB03KT P6SM SKC=



000
FTUS43 KJKL 280524
TAFLOZ
TAF
KLOZ 280524Z 2806/2906 34010KT P6SM VCSH SCT035 OVC050
     FM280900 33004KT P6SM BKN050
     FM281200 VRB03KT P6SM SKC=



000
FTUS43 KJKL 280524
TAFSME
TAF
KSME 280524Z 2806/2906 34008KT P6SM VCSH SCT035 BKN050
     FM280900 33004KT P6SM BKN050
     FM281200 VRB03KT P6SM SKC=



000
FTUS43 KJKL 272338
TAFJKL
TAF
KJKL 272338Z 2800/2824 33008KT P6SM VCSH SCT035 OVC050
     FM281300 33004KT P6SM BKN050
     FM281500 VRB03KT P6SM SKC=



000
FTUS43 KJKL 272338
TAFLOZ
TAF
KLOZ 272338Z 2800/2824 34010KT P6SM VCSH SCT035 OVC050
     FM280900 33004KT P6SM BKN050
     FM281200 VRB03KT P6SM SKC=



000
FTUS43 KJKL 272338
TAFSME
TAF
KSME 272338Z 2800/2824 34008KT P6SM VCSH SCT035 OVC050
     FM280900 33004KT P6SM BKN050
     FM281200 VRB03KT P6SM SKC=



000
FTUS43 KJKL 272338
TAFLOZ
TAF
KLOZ 272338Z 2800/2824 34010KT P6SM VCSH SCT035 OVC050
     FM280900 33004KT P6SM BKN050
     FM281200 VRB03KT P6SM SKC=



000
FTUS43 KJKL 272338
TAFJKL
TAF
KJKL 272338Z 2800/2824 33008KT P6SM VCSH SCT035 OVC050
     FM281300 33004KT P6SM BKN050
     FM281500 VRB03KT P6SM SKC=



000
FTUS43 KJKL 272338
TAFSME
TAF
KSME 272338Z 2800/2824 34008KT P6SM VCSH SCT035 OVC050
     FM280900 33004KT P6SM BKN050
     FM281200 VRB03KT P6SM SKC=



000
FTUS43 KJKL 271726
TAFSME
TAF
KSME 271726Z 2718/2818 35007KT P6SM BKN040
     FM271900 33008KT P6SM VCSH BKN030
     FM280000 34004KT P6SM SCT035=



000
FTUS43 KJKL 271726
TAFJKL
TAF
KJKL 271726Z 2718/2818 32006KT P6SM BKN040
     FM272000 33005KT P6SM VCSH BKN030
     FM280200 33004KT P6SM SCT035=



000
FTUS43 KJKL 271726
TAFLOZ
TAF
KLOZ 271726Z 2718/2818 32007KT P6SM BKN040
     FM272000 33008KT P6SM VCSH BKN030
     FM280100 34004KT P6SM SCT035=



000
FTUS43 KJKL 271726
TAFLOZ
TAF
KLOZ 271726Z 2718/2818 32007KT P6SM BKN040
     FM272000 33008KT P6SM VCSH BKN030
     FM280100 34004KT P6SM SCT035=



000
FTUS43 KJKL 271726
TAFJKL
TAF
KJKL 271726Z 2718/2818 32006KT P6SM BKN040
     FM272000 33005KT P6SM VCSH BKN030
     FM280200 33004KT P6SM SCT035=



000
FTUS43 KJKL 271726
TAFSME
TAF
KSME 271726Z 2718/2818 35007KT P6SM BKN040
     FM271900 33008KT P6SM VCSH BKN030
     FM280000 34004KT P6SM SCT035=



000
FTUS43 KJKL 271139
TAFJKL
TAF
KJKL 271139Z 2712/2812 36003KT 3SM BR BKN009 BKN020
     FM271300 33005KT P6SM SCT015 BKN035
     FM271800 32006KT P6SM VCSH BKN050
     FM280200 33004KT P6SM SCT050=



000
FTUS43 KJKL 271139
TAFJKL
TAF
KJKL 271139Z 2712/2812 36003KT 3SM BR BKN009 BKN020
     FM271300 33005KT P6SM SCT015 BKN035
     FM271800 32006KT P6SM VCSH BKN050
     FM280200 33004KT P6SM SCT050=



000
FTUS43 KJKL 271139
TAFSME
TAF
KSME 271139Z 2712/2812 00000KT 5SM BR OVC035
     FM271300 33004KT P6SM BKN035
     FM271800 32007KT P6SM VCSH BKN050
     FM280000 33004KT P6SM SCT050=



000
FTUS43 KJKL 271139
TAFSME
TAF
KSME 271139Z 2712/2812 00000KT 5SM BR OVC035
     FM271300 33004KT P6SM BKN035
     FM271800 32007KT P6SM VCSH BKN050
     FM280000 33004KT P6SM SCT050=



000
FTUS43 KJKL 271139
TAFLOZ
TAF
KLOZ 271139Z 2712/2812 35006KT P6SM SCT020 SCT035
     FM271800 32007KT P6SM VCSH BKN050
     FM280100 33004KT P6SM SCT050=



000
FTUS43 KJKL 271139
TAFLOZ
TAF
KLOZ 271139Z 2712/2812 35006KT P6SM SCT020 SCT035
     FM271800 32007KT P6SM VCSH BKN050
     FM280100 33004KT P6SM SCT050=



000
FTUS43 KJKL 270920 AAB
TAFJKL
TAF AMD
KJKL 270920Z 2709/2806 02004KT P6SM BKN035
     FM271100 01004KT P6SM SCT035
     FM271800 32006KT P6SM VCSH BKN050
     FM280200 33004KT P6SM SCT050=



000
FTUS43 KJKL 270919 AAA
TAFLOZ
TAF AMD
KLOZ 270919Z 2709/2806 35006KT P6SM SCT020 SCT035
     FM271800 32007KT P6SM VCSH BKN050
     FM280100 33004KT P6SM SCT050=



000
FTUS43 KJKL 270539
TAFSME
TAF
KSME 270539Z 2706/2806 02004KT P6SM OVC015
     FM270900 34005KT 6SM BR SCT025 BKN050
     FM271800 32007KT P6SM VCSH BKN050
     FM280000 33004KT P6SM SCT050=



000
FTUS43 KJKL 270539
TAFJKL
TAF
KJKL 270539Z 2706/2806 02004KT 4SM BR BKN006 OVC010
     FM270700 35004KT P6SM OVC025
     FM271000 34005KT 6SM BR SCT025 BKN050
     FM271800 32006KT P6SM VCSH BKN050
     FM280200 33004KT P6SM SCT050=



000
FTUS43 KJKL 270539
TAFSME
TAF
KSME 270539Z 2706/2806 02004KT P6SM OVC015
     FM270900 34005KT 6SM BR SCT025 BKN050
     FM271800 32007KT P6SM VCSH BKN050
     FM280000 33004KT P6SM SCT050=



000
FTUS43 KJKL 270539
TAFJKL
TAF
KJKL 270539Z 2706/2806 02004KT 4SM BR BKN006 OVC010
     FM270700 35004KT P6SM OVC025
     FM271000 34005KT 6SM BR SCT025 BKN050
     FM271800 32006KT P6SM VCSH BKN050
     FM280200 33004KT P6SM SCT050=



000
FTUS43 KJKL 270539
TAFLOZ
TAF
KLOZ 270539Z 2706/2806 34006KT P6SM SCT009 OVC020
     FM271000 34005KT 6SM BR SCT025 BKN050
     FM271800 32007KT P6SM VCSH BKN050
     FM280100 33004KT P6SM SCT050=



000
FTUS43 KJKL 270539
TAFLOZ
TAF
KLOZ 270539Z 2706/2806 34006KT P6SM SCT009 OVC020
     FM271000 34005KT 6SM BR SCT025 BKN050
     FM271800 32007KT P6SM VCSH BKN050
     FM280100 33004KT P6SM SCT050=



    US Dept of Commerce
    National Oceanic and Atmospheric Administration
    National Weather Service
    1325 East West Highway
    Silver Spring, MD 20910
    Page Author: NWS Internet Services Team
Disclaimer
Information Quality
Credits
Glossary
Privacy Policy
Freedom of Information Act (FOIA)
About Us
Career Opportunities